PWSweather.com
Personal Weather Stations
Station Observations
KWAVA98665
Vancouver, WA 98665

Vancouver, WA 98665

Lat: 45.6827589, Lon: -122.63116100000002

Elevation: 262

Station Type: Davis VP2

http://www.bobsvp2wd.net

Latest ConditionsUpdated 6:30:02 PM PST Friday, Feb 23, 2018
Currently Today's Max Today's Min Today's Average
Temperature 37.1°F2.8°C 37.2°F2.9°C 22.4°F-5.3°C 29.4°F-1.4°C
Dew Point 30.2°F-1.0°C 30.2°F-1.0°C 20.7°F-6.3°C 25.0°F-3.9°C
Winds 3.5 mph S5.6 kmh S 3.5 mph SE5.6 kmh SE - 0.9 mph 1.4 kmh
Wind Gusts 8.1 mph13.0 kmh 8.1 mph13.0 kmh - -
Humidity 76% 95% 72% 84%
Pressure 30.30 in1026.1 mb 30.49 in1032.5 mb 30.30 in1026.1 mb -
Precipitation - 0.01 in0.3 mm - -
Hour Temp Dew Point Humidity Winds Wind Gusts Pressure Precip Precip Rate Daily Precip Total
06:30 PM 37.1°F2.8°C 30.2°F-1.0°C 76% 3.5 mph S5.6 kmh S 8.1 mph13.0 kmh 30.30 in1026.1 mb - 0.00 in0.0 mm 0.01 in0.3 mm
06:15 PM 37.2°F2.9°C 29.7°F-1.3°C 74% 1.2 mph SW1.9 kmh SW 3.5 mph5.6 kmh 30.30 in1026.1 mb - 0.00 in0.0 mm 0.01 in0.3 mm
06:00 PM 37.1°F2.8°C 29.9°F-1.2°C 75% 1.2 mph SSE1.9 kmh SSE 2.3 mph3.7 kmh 30.30 in1026.1 mb - 0.00 in0.0 mm 0.01 in0.3 mm
05:45 PM 37.0°F2.8°C 29.8°F-1.2°C 75% Calm Calm 2.3 mph3.7 kmh 30.31 in1026.4 mb - 0.00 in0.0 mm 0.01 in0.3 mm
05:30 PM 36.9°F2.7°C 29.7°F-1.3°C 75% 1.2 mph SE1.9 kmh SE 2.3 mph3.7 kmh 30.31 in1026.4 mb - 0.00 in0.0 mm 0.01 in0.3 mm
05:15 PM 36.9°F2.7°C 29.7°F-1.3°C 75% Calm Calm 1.2 mph1.9 kmh 30.32 in1026.8 mb - 0.00 in0.0 mm 0.01 in0.3 mm
05:00 PM 36.8°F2.7°C 29.3°F-1.5°C 74% 1.2 mph S1.9 kmh S 2.3 mph3.7 kmh 30.32 in1026.8 mb - 0.00 in0.0 mm 0.01 in0.3 mm
04:45 PM 36.7°F2.6°C 29.2°F-1.6°C 74% Calm Calm 2.3 mph3.7 kmh 30.33 in1027.1 mb - 0.00 in0.0 mm 0.01 in0.3 mm
04:30 PM 36.5°F2.5°C 28.7°F-1.8°C 73% 2.3 mph S3.7 kmh S 3.5 mph5.6 kmh 30.34 in1027.4 mb - 0.00 in0.0 mm 0.01 in0.3 mm
04:15 PM 36.4°F2.4°C 28.6°F-1.9°C 73% Calm Calm 1.2 mph1.9 kmh 30.34 in1027.4 mb - 0.00 in0.0 mm 0.01 in0.3 mm
04:00 PM 36.2°F2.3°C 29.0°F-1.7°C 75% 1.2 mph SE1.9 kmh SE 2.3 mph3.7 kmh 30.34 in1027.4 mb - 0.00 in0.0 mm 0.01 in0.3 mm
03:45 PM 36.0°F2.2°C 29.5°F-1.4°C 77% Calm Calm 1.2 mph1.9 kmh 30.36 in1028.1 mb - 0.00 in0.0 mm 0.01 in0.3 mm
03:30 PM 36.0°F2.2°C 28.9°F-1.7°C 75% 1.2 mph E1.9 kmh E 3.5 mph5.6 kmh 30.36 in1028.1 mb - 0.00 in0.0 mm 0.01 in0.3 mm
03:15 PM 36.2°F2.3°C 29.0°F-1.7°C 75% 1.2 mph SSW1.9 kmh SSW 1.2 mph1.9 kmh 30.37 in1028.4 mb - 0.00 in0.0 mm 0.01 in0.3 mm
03:00 PM 36.1°F2.3°C 28.6°F-1.9°C 74% 1.2 mph SE1.9 kmh SE 2.3 mph3.7 kmh 30.37 in1028.4 mb - 0.00 in0.0 mm 0.01 in0.3 mm
02:45 PM 36.1°F2.3°C 28.3°F-2.1°C 73% 1.2 mph SE1.9 kmh SE 2.3 mph3.7 kmh 30.38 in1028.8 mb - 0.00 in0.0 mm 0.01 in0.3 mm
02:30 PM 35.9°F2.2°C 28.4°F-2.0°C 74% 1.2 mph SSE1.9 kmh SSE 2.3 mph3.7 kmh 30.39 in1029.1 mb - 0.00 in0.0 mm 0.01 in0.3 mm
02:15 PM 35.6°F2.0°C 27.7°F-2.4°C 73% 1.2 mph SE1.9 kmh SE 2.3 mph3.7 kmh 30.40 in1029.5 mb - 0.00 in0.0 mm 0.01 in0.3 mm
02:00 PM 35.5°F1.9°C 28.0°F-2.2°C 74% 1.2 mph SE1.9 kmh SE 2.3 mph3.7 kmh 30.41 in1029.8 mb - 0.00 in0.0 mm 0.01 in0.3 mm
01:45 PM 35.7°F2.1°C 27.6°F-2.4°C 72% 2.3 mph SE3.7 kmh SE 3.5 mph5.6 kmh 30.42 in1030.1 mb - 0.00 in0.0 mm 0.01 in0.3 mm
01:30 PM 35.6°F2.0°C 27.8°F-2.3°C 73% Calm Calm 1.2 mph1.9 kmh 30.43 in1030.5 mb - 0.00 in0.0 mm 0.01 in0.3 mm
01:15 PM 35.1°F1.7°C 27.3°F-2.6°C 73% Calm Calm 2.3 mph3.7 kmh 30.43 in1030.5 mb - 0.00 in0.0 mm 0.01 in0.3 mm
01:00 PM 34.6°F1.4°C 27.2°F-2.7°C 74% 2.3 mph SE3.7 kmh SE 3.5 mph5.6 kmh 30.43 in1030.5 mb - 0.00 in0.0 mm 0.01 in0.3 mm
12:45 PM 34.3°F1.3°C 27.2°F-2.7°C 75% 1.2 mph S1.9 kmh S 1.2 mph1.9 kmh 30.44 in1030.8 mb - 0.00 in0.0 mm 0.01 in0.3 mm
12:30 PM 33.7°F0.9°C 27.3°F-2.6°C 77% 2.3 mph ESE3.7 kmh ESE 3.5 mph5.6 kmh 30.44 in1030.8 mb - 0.00 in0.0 mm 0.01 in0.3 mm
12:15 PM 33.5°F0.8°C 26.7°F-2.9°C 76% 2.3 mph E3.7 kmh E 8.1 mph13.0 kmh 30.45 in1031.2 mb - 0.00 in0.0 mm 0.01 in0.3 mm
12:00 PM 32.5°F0.3°C 25.8°F-3.4°C 76% 3.5 mph SE5.6 kmh SE 6.9 mph11.1 kmh 30.45 in1031.2 mb - 0.00 in0.0 mm 0.01 in0.3 mm
11:45 AM 31.8°F-0.1°C 25.4°F-3.7°C 77% 2.3 mph ESE3.7 kmh ESE 4.6 mph7.4 kmh 30.46 in1031.5 mb - 0.00 in0.0 mm 0.01 in0.3 mm
11:30 AM 31.9°F-0.1°C 25.5°F-3.6°C 77% 1.2 mph SE1.9 kmh SE 2.3 mph3.7 kmh 30.47 in1031.8 mb - 0.00 in0.0 mm 0.01 in0.3 mm
11:15 AM 31.3°F-0.4°C 25.0°F-3.9°C 77% 3.5 mph E5.6 kmh E 4.6 mph7.4 kmh 30.47 in1031.8 mb - 0.00 in0.0 mm 0.01 in0.3 mm
11:00 AM 31.3°F-0.4°C 25.3°F-3.7°C 78% Calm Calm 1.2 mph1.9 kmh 30.47 in1031.8 mb - 0.00 in0.0 mm 0.01 in0.3 mm
10:45 AM 31.5°F-0.3°C 25.1°F-3.8°C 77% 3.5 mph E5.6 kmh E 5.8 mph9.3 kmh 30.46 in1031.5 mb - 0.00 in0.0 mm 0.01 in0.3 mm
10:30 AM 29.6°F-1.3°C 23.9°F-4.5°C 79% 2.3 mph E3.7 kmh E 2.3 mph3.7 kmh 30.46 in1031.5 mb - 0.00 in0.0 mm 0.01 in0.3 mm
10:15 AM 29.0°F-1.7°C 24.8°F-4.0°C 84% Calm Calm 2.3 mph3.7 kmh 30.47 in1031.8 mb - 0.00 in0.0 mm 0.01 in0.3 mm
10:00 AM 29.0°F-1.7°C 24.5°F-4.2°C 83% Calm Calm 3.5 mph5.6 kmh 30.47 in1031.8 mb - 0.00 in0.0 mm 0.01 in0.3 mm
09:45 AM 28.3°F-2.1°C 23.8°F-4.6°C 83% 1.2 mph SE1.9 kmh SE 2.3 mph3.7 kmh 30.47 in1031.8 mb - 0.00 in0.0 mm 0.01 in0.3 mm
09:30 AM 28.3°F-2.1°C 23.5°F-4.7°C 82% 1.2 mph SE1.9 kmh SE 3.5 mph5.6 kmh 30.48 in1032.2 mb - 0.00 in0.0 mm 0.01 in0.3 mm
09:15 AM 28.6°F-1.9°C 24.4°F-4.2°C 84% 1.2 mph SE1.9 kmh SE 2.3 mph3.7 kmh 30.48 in1032.2 mb - 0.00 in0.0 mm 0.01 in0.3 mm
09:00 AM 27.4°F-2.6°C 23.5°F-4.7°C 85% 3.5 mph SE5.6 kmh SE 3.5 mph5.6 kmh 30.48 in1032.2 mb - 0.00 in0.0 mm 0.01 in0.3 mm
08:45 AM 26.9°F-2.8°C 23.5°F-4.7°C 87% 2.3 mph SE3.7 kmh SE 3.5 mph5.6 kmh 30.49 in1032.5 mb - 0.00 in0.0 mm 0.01 in0.3 mm
08:30 AM 25.8°F-3.4°C 23.6°F-4.7°C 91% 1.2 mph E1.9 kmh E 3.5 mph5.6 kmh 30.48 in1032.2 mb - 0.00 in0.0 mm 0.01 in0.3 mm
08:15 AM 24.4°F-4.2°C 22.4°F-5.3°C 92% 1.2 mph E1.9 kmh E 1.2 mph1.9 kmh 30.48 in1032.2 mb - 0.00 in0.0 mm 0.01 in0.3 mm
08:00 AM 23.4°F-4.8°C 21.7°F-5.7°C 93% Calm Calm -- 30.48 in1032.2 mb - 0.00 in0.0 mm 0.01 in0.3 mm
07:45 AM 22.8°F-5.1°C 21.1°F-6.1°C 93% 1.2 mph E1.9 kmh E 2.3 mph3.7 kmh 30.48 in1032.2 mb - 0.00 in0.0 mm 0.01 in0.3 mm
07:30 AM 22.5°F-5.3°C 20.8°F-6.2°C 93% Calm Calm -- 30.48 in1032.2 mb - 0.00 in0.0 mm 0.01 in0.3 mm
07:15 AM 22.4°F-5.3°C 20.7°F-6.3°C 93% Calm Calm -- 30.48 in1032.2 mb - 0.00 in0.0 mm 0.01 in0.3 mm
07:00 AM 22.5°F-5.3°C 20.8°F-6.2°C 93% 2.3 mph ENE3.7 kmh ENE 3.5 mph5.6 kmh 30.47 in1031.8 mb - 0.00 in0.0 mm 0.01 in0.3 mm
06:45 AM 22.6°F-5.2°C 20.9°F-6.2°C 93% 2.3 mph E3.7 kmh E 3.5 mph5.6 kmh 30.46 in1031.5 mb - 0.00 in0.0 mm 0.01 in0.3 mm
06:30 AM 22.7°F-5.2°C 21.2°F-6.0°C 94% 2.3 mph ENE3.7 kmh ENE 2.3 mph3.7 kmh 30.46 in1031.5 mb - 0.00 in0.0 mm 0.01 in0.3 mm
06:15 AM 22.4°F-5.3°C 21.2°F-6.0°C 95% 1.2 mph ENE1.9 kmh ENE 2.3 mph3.7 kmh 30.46 in1031.5 mb - 0.00 in0.0 mm 0.01 in0.3 mm
06:00 AM 22.6°F-5.2°C 21.4°F-5.9°C 95% Calm Calm -- 30.47 in1031.8 mb - 0.00 in0.0 mm 0.01 in0.3 mm
05:45 AM 22.6°F-5.2°C 21.1°F-6.1°C 94% Calm Calm 1.2 mph1.9 kmh 30.46 in1031.5 mb - 0.00 in0.0 mm 0.01 in0.3 mm
05:30 AM 22.9°F-5.1°C 21.7°F-5.7°C 95% Calm Calm -- 30.46 in1031.5 mb - 0.00 in0.0 mm 0.01 in0.3 mm
05:15 AM 22.9°F-5.1°C 21.5°F-5.8°C 94% Calm Calm -- 30.46 in1031.5 mb - 0.00 in0.0 mm 0.01 in0.3 mm
05:00 AM 23.3°F-4.8°C 21.8°F-5.7°C 94% Calm Calm -- 30.46 in1031.5 mb - 0.00 in0.0 mm 0.01 in0.3 mm
04:45 AM 23.4°F-4.8°C 22.2°F-5.4°C 95% Calm Calm 1.2 mph1.9 kmh 30.46 in1031.5 mb - 0.00 in0.0 mm 0.01 in0.3 mm
04:30 AM 23.5°F-4.7°C 22.0°F-5.6°C 94% Calm Calm -- 30.46 in1031.5 mb - 0.00 in0.0 mm 0.01 in0.3 mm
04:15 AM 23.6°F-4.7°C 22.1°F-5.5°C 94% Calm Calm -- 30.46 in1031.5 mb - 0.00 in0.0 mm 0.01 in0.3 mm
04:00 AM 23.7°F-4.6°C 22.2°F-5.4°C 94% Calm Calm -- 30.46 in1031.5 mb - 0.00 in0.0 mm 0.01 in0.3 mm
03:45 AM 24.1°F-4.4°C 22.6°F-5.2°C 94% Calm Calm -- 30.45 in1031.2 mb - 0.00 in0.0 mm 0.01 in0.3 mm
03:30 AM 24.3°F-4.3°C 22.8°F-5.1°C 94% 1.2 mph ENE1.9 kmh ENE 1.2 mph1.9 kmh 30.45 in1031.2 mb - 0.00 in0.0 mm 0.01 in0.3 mm
03:15 AM 24.3°F-4.3°C 22.6°F-5.2°C 93% Calm Calm -- 30.45 in1031.2 mb - 0.00 in0.0 mm 0.01 in0.3 mm
03:00 AM 24.6°F-4.1°C 22.9°F-5.1°C 93% Calm Calm -- 30.45 in1031.2 mb - 0.00 in0.0 mm 0.01 in0.3 mm
02:45 AM 24.9°F-3.9°C 23.2°F-4.9°C 93% Calm Calm -- 30.45 in1031.2 mb - 0.00 in0.0 mm 0.01 in0.3 mm
02:30 AM 25.4°F-3.7°C 23.7°F-4.6°C 93% Calm Calm -- 30.45 in1031.2 mb - 0.00 in0.0 mm 0.01 in0.3 mm
02:15 AM 25.4°F-3.7°C 23.7°F-4.6°C 93% Calm Calm -- 30.45 in1031.2 mb - 0.00 in0.0 mm 0.01 in0.3 mm
02:00 AM 25.6°F-3.6°C 23.6°F-4.7°C 92% Calm Calm -- 30.45 in1031.2 mb - 0.00 in0.0 mm 0.01 in0.3 mm
01:45 AM 25.8°F-3.4°C 23.8°F-4.6°C 92% Calm Calm -- 30.44 in1030.8 mb - 0.00 in0.0 mm 0.01 in0.3 mm
01:30 AM 26.1°F-3.3°C 23.8°F-4.6°C 91% Calm Calm -- 30.44 in1030.8 mb - 0.00 in0.0 mm 0.01 in0.3 mm
01:15 AM 26.3°F-3.2°C 23.8°F-4.6°C 90% Calm Calm -- 30.43 in1030.5 mb - 0.00 in0.0 mm 0.01 in0.3 mm
01:00 AM 26.7°F-2.9°C 24.4°F-4.2°C 91% Calm Calm -- 30.43 in1030.5 mb - 0.01 in0.3 mm 0.01 in0.3 mm
12:45 AM 26.6°F-3.0°C 24.6°F-4.1°C 92% Calm Calm -- 30.43 in1030.5 mb - 0.00 in0.0 mm 0.00 in0.0 mm
12:30 AM 26.7°F-2.9°C 24.7°F-4.1°C 92% Calm Calm -- 30.43 in1030.5 mb - 0.00 in0.0 mm 0.00 in0.0 mm
12:15 AM 27.0°F-2.8°C 25.0°F-3.9°C 92% Calm Calm -- 30.43 in1030.5 mb - 0.00 in0.0 mm 0.00 in0.0 mm
12:00 AM 27.3°F-2.6°C 25.3°F-3.7°C 92% Calm Calm -- 30.43 in1030.5 mb - 0.00 in0.0 mm 0.00 in0.0 mm